This is the latest recevied weather packets stored in our database for station/object N1ORT. If no packets are shown the sender has not sent any weather packets the latest 1 day(s).
| Time | Temp. | Humidity | Pressure | Rain* | Wind** | Luminosity | Snow |
|---|---|---|---|---|---|---|---|
| 1778025005 | 23.33° C | 44% | 1005.3 hPa | 0 mm | 1.34 m/s, 295° | 2 W/m² | - |
| 1778024702 | 23.33° C | 44% | 1005 hPa | 0 mm | 1.79 m/s, 100° | 4 W/m² | - |
| 1778024399 | 23.33° C | 45% | 1005.1 hPa | 0 mm | 1.79 m/s, 250° | 7 W/m² | - |
| 1778024096 | 23.89° C | 44% | 1004.8 hPa | 0 mm | 1.79 m/s, 262° | 11 W/m² | - |
| 1778023794 | 23.89° C | 44% | 1004.7 hPa | 0 mm | 0.89 m/s, 127° | 14 W/m² | - |
| 1778023492 | 23.89° C | 44% | 1004.5 hPa | 0 mm | 1.79 m/s, 266° | 16 W/m² | - |
| 1778023189 | 23.89° C | 44% | 1004.6 hPa | 0 mm | 0 m/s | 18 W/m² | - |
| 1778022886 | 23.89° C | 44% | 1004.5 hPa | 0 mm | 1.34 m/s, 296° | 20 W/m² | - |
| 1778022584 | 24.44° C | 43% | 1004.4 hPa | 0 mm | 1.34 m/s, 18° | 23 W/m² | - |
| 1778022281 | 24.44° C | 43% | 1004.3 hPa | 0 mm | 1.34 m/s, 105° | 27 W/m² | - |
| 1778021977 | 24.44° C | 42% | 1004.1 hPa | 0 mm | 2.24 m/s, 349° | 32 W/m² | - |
| 1778021675 | 25° C | 42% | 1004.2 hPa | 0 mm | 1.34 m/s, 55° | 38 W/m² | - |
| 1778021371 | 25° C | 41% | 1004.1 hPa | 0 mm | 4.02 m/s, 257° | 48 W/m² | - |
| 1778021068 | 25° C | 41% | 1004 hPa | 0 mm | 1.34 m/s, 267° | 57 W/m² | - |
| 1778020765 | 25.56° C | 41% | 1004.1 hPa | 0 mm | 2.24 m/s, 278° | 67 W/m² | - |
| 1778020462 | 25.56° C | 41% | 1003.9 hPa | 0 mm | 2.24 m/s, 118° | 72 W/m² | - |
| 1778020158 | 25.56° C | 40% | 1004 hPa | 0 mm | 1.34 m/s, 141° | 78 W/m² | - |
| 1778019854 | 25.56° C | 40% | 1003.8 hPa | 0 mm | 1.79 m/s, 62° | 83 W/m² | - |
| 1778019551 | 26.11° C | 39% | 1003.8 hPa | 0 mm | 2.24 m/s, 186° | 90 W/m² | - |
| 1778019248 | 26.11° C | 41% | 1003.5 hPa | 0 mm | 1.34 m/s, 226° | 97 W/m² | - |
| 1778018945 | 26.67° C | 38% | 1003.4 hPa | 0 mm | 1.79 m/s, 228° | 97 W/m² | - |
| 1778018642 | 26.67° C | 38% | 1003.2 hPa | 0 mm | 1.34 m/s, 257° | 97 W/m² | - |
| 1778018340 | 26.67° C | 37% | 1003.2 hPa | 0 mm | 1.34 m/s, 278° | 104 W/m² | - |
| 1778018037 | 26.67° C | 37% | 1003.4 hPa | 0 mm | 1.34 m/s, 135° | 117 W/m² | - |
| 1778017735 | 26.67° C | 37% | 1003.2 hPa | 0 mm | 2.68 m/s, 228° | 116 W/m² | - |
* Rain latest hour (hover to see other rain measurements)
** Current wind speed in m/s (hover to see current wind gust speed)